Time;durP1;ratioP1;P1;durP2;ratioP2;P2;SDS_P1;SDS_P2;PMS_P1;PMS_P2;Temp;Humidity;BMP_temperature;BMP_pressure;BME280_temperature;BME280_humidity;BME280_pressure;Samples;Min_cycle;Max_cycle;Signal;HPM_P1;HPM_P2
2022/03/10 00:02:08;;;;;;;16.90;10.25;;;;;;;-1.99;74.76;93445.81;5091790;28;20024;-41
2022/03/10 00:04:35;;;;;;;20.20;11.05;;;;;;;-2.00;75.08;93441.63;5073414;28;20034;-41
2022/03/10 00:07:02;;;;;;;19.73;12.00;;;;;;;-2.01;74.95;93443.56;5073034;28;20500;-42
2022/03/10 00:09:28;;;;;;;18.52;10.90;;;;;;;-1.98;74.78;93441.88;5072989;28;20028;-41
2022/03/10 00:11:54;;;;;;;19.48;11.13;;;;;;;-2.07;74.89;93436.56;5072950;28;20025;-41
2022/03/10 00:14:19;;;;;;;14.57;8.75;;;;;;;-1.92;74.61;93443.47;5072914;28;20074;-41
2022/03/10 00:16:45;;;;;;;18.17;9.38;;;;;;;-1.88;74.07;93446.72;5073181;28;20104;-41
2022/03/10 00:19:12;;;;;;;15.63;8.85;;;;;;;-1.99;74.01;93445.81;5072941;28;20047;-41
2022/03/10 00:21:40;;;;;;;15.27;9.23;;;;;;;-2.10;73.75;93440.97;5073037;28;20024;-41
2022/03/10 00:24:06;;;;;;;13.20;7.82;;;;;;;-2.07;73.19;93431.16;5072753;28;20571;-41
2022/03/10 00:26:32;;;;;;;15.20;8.90;;;;;;;-2.25;73.48;93440.22;5072795;28;20067;-41
2022/03/10 00:28:57;;;;;;;15.95;9.00;;;;;;;-2.30;73.58;93438.19;5072924;28;20032;-41
2022/03/10 00:31:22;;;;;;;14.95;8.73;;;;;;;-2.25;73.10;93428.69;5072719;28;20024;-41
2022/03/10 00:33:48;;;;;;;13.52;8.13;;;;;;;-2.22;72.21;93433.13;5072843;28;20035;-41
2022/03/10 00:36:14;;;;;;;23.67;12.93;;;;;;;-2.37;71.85;93436.59;5072886;28;20074;-41
2022/03/10 00:38:40;;;;;;;19.52;11.00;;;;;;;-2.44;71.90;93434.25;5072815;28;20028;-41
2022/03/10 00:41:05;;;;;;;21.33;11.93;;;;;;;-2.49;71.42;93434.19;5083714;28;20027;-41
2022/03/10 00:43:31;;;;;;;16.35;9.23;;;;;;;-2.56;71.19;93419.06;5092545;28;20016;-41
2022/03/10 00:45:56;;;;;;;14.88;8.85;;;;;;;-2.55;70.90;93425.22;5093033;28;20037;-41
2022/03/10 00:48:21;;;;;;;15.38;8.52;;;;;;;-2.85;70.54;93420.97;5092839;28;20032;-41
2022/03/10 00:50:47;;;;;;;17.73;9.48;;;;;;;-3.16;71.84;93424.81;5092828;28;20408;-41
2022/03/10 00:53:12;;;;;;;13.52;7.50;;;;;;;-3.32;72.32;93414.47;5092736;28;20474;-41
2022/03/10 00:55:38;;;;;;;16.08;8.40;;;;;;;-3.43;72.53;93403.44;5092434;28;20429;-41
2022/03/10 00:58:03;;;;;;;16.10;8.52;;;;;;;-3.54;71.92;93424.78;5092489;28;20051;-41
2022/03/10 01:00:29;;;;;;;16.83;8.60;;;;;;;-3.79;72.83;93422.53;5092570;28;20524;-41
2022/03/10 01:02:57;;;;;;;18.85;9.73;;;;;;;-3.93;73.60;93426.66;5092183;28;20024;-41
2022/03/10 01:05:23;;;;;;;17.27;9.38;;;;;;;-3.85;72.78;93422.41;5092308;28;20028;-41
2022/03/10 01:07:49;;;;;;;17.60;9.43;;;;;;;-3.98;72.95;93421.13;5092545;28;20047;-41
2022/03/10 01:10:15;;;;;;;13.05;8.82;;;;;;;-4.42;74.06;93426.25;5087352;28;20082;-41
2022/03/10 01:12:44;;;;;;;19.40;10.68;;;;;;;-4.21;73.38;93413.72;5072178;28;20024;-42
2022/03/10 01:15:10;;;;;;;;;;;;;;;-3.95;73.43;93422.91;5072682;28;20029;-41
2022/03/10 01:17:36;;;;;;;15.27;7.68;;;;;;;-3.94;72.13;93422.44;5072056;28;19908;-41
2022/03/10 01:20:02;;;;;;;15.00;7.85;;;;;;;-4.20;72.26;93420.63;5071775;28;20051;-41
2022/03/10 01:22:28;;;;;;;13.95;7.30;;;;;;;-4.18;72.11;93418.94;5071519;28;20031;-41
2022/03/10 01:24:53;;;;;;;13.35;8.45;;;;;;;-4.38;72.12;93416.03;5071960;28;20036;-41
2022/03/10 01:27:19;;;;;;;16.52;8.90;;;;;;;-4.33;73.14;93417.38;5071569;28;20032;-41
2022/03/10 01:29:44;;;;;;;14.93;7.88;;;;;;;-4.22;74.13;93418.38;5071848;28;20029;-41
2022/03/10 01:32:11;;;;;;;18.40;9.60;;;;;;;-4.09;72.75;93416.22;5071442;28;20494;-41
2022/03/10 01:34:37;;;;;;;16.02;8.55;;;;;;;-4.02;72.54;93420.53;5071667;28;20051;-41
2022/03/10 01:37:02;;;;;;;18.35;9.20;;;;;;;-4.18;72.15;93423.63;5071425;28;20464;-41
2022/03/10 01:39:30;;;;;;;18.63;8.50;;;;;;;-4.15;72.04;93423.44;5071357;28;20047;-41
2022/03/10 01:41:56;;;;;;;15.55;8.30;;;;;;;-4.18;71.41;93418.22;5089528;28;20030;-41
2022/03/10 01:44:22;;;;;;;15.13;8.43;;;;;;;-4.33;72.14;93420.81;5091777;28;20106;-41
2022/03/10 01:46:47;;;;;;;14.85;7.90;;;;;;;-4.42;71.44;93418.16;5091393;28;20164;-40
2022/03/10 01:49:13;;;;;;;16.88;8.45;;;;;;;-4.29;71.65;93420.66;5091663;28;20049;-41
2022/03/10 01:51:38;;;;;;;19.13;8.18;;;;;;;-4.50;72.02;93411.56;5091347;28;20074;-42
2022/03/10 01:54:04;;;;;;;19.88;8.93;;;;;;;-4.53;71.38;93419.81;5091643;28;20079;-41
2022/03/10 01:56:32;;;;;;;16.42;7.68;;;;;;;-4.59;71.15;93413.56;5091047;28;20505;-41
2022/03/10 01:58:58;;;;;;;12.63;7.28;;;;;;;-4.61;71.42;93414.00;5091179;28;20032;-41
2022/03/10 02:01:24;;;;;;;15.55;7.97;;;;;;;-4.58;70.81;93423.13;5091440;28;20024;-41
2022/03/10 02:03:50;;;;;;;16.77;7.75;;;;;;;-4.77;70.84;93427.81;5090997;28;20520;-41
2022/03/10 02:06:15;;;;;;;20.83;11.10;;;;;;;-4.71;71.77;93423.31;5091135;28;20060;-41
2022/03/10 02:11:26;;;;;;;19.55;9.20;;;;;;;-5.06;71.13;93395.97;5077120;28;20118;-41
2022/03/10 02:13:51;;;;;;;29.38;13.05;;;;;;;-4.89;71.53;93429.44;5071021;28;20017;-41
2022/03/10 02:19:03;;;;;;;33.70;15.68;;;;;;;-5.03;73.16;93422.00;5070667;28;20094;-41
2022/03/10 02:21:29;;;;;;;27.95;13.93;;;;;;;-5.06;73.29;93422.13;5070695;28;20032;-41
2022/03/10 02:23:54;;;;;;;21.20;11.43;;;;;;;-4.91;72.51;93429.16;5053114;28;20029;-41
2022/03/10 02:26:19;;;;;;;23.85;11.70;;;;;;;-4.98;71.56;93439.50;5070500;28;20028;-41
2022/03/10 02:28:45;;;;;;;20.95;11.00;;;;;;;-5.04;71.39;93433.94;5070767;28;20028;-41
2022/03/10 02:31:11;;;;;;;19.45;10.15;;;;;;;-5.09;72.05;93423.06;5052587;28;20409;-42
2022/03/10 02:33:37;;;;;;;18.83;9.27;;;;;;;-5.03;71.61;93437.41;5070450;28;20051;-41
2022/03/10 02:36:04;;;;;;;23.42;11.68;;;;;;;-5.21;72.35;93435.44;5070325;28;20025;-41
2022/03/10 02:38:30;;;;;;;15.23;8.73;;;;;;;-5.18;72.71;93448.03;5070359;28;20069;-40
2022/03/10 02:40:56;;;;;;;18.38;7.88;;;;;;;-5.23;73.42;93450.53;5080456;28;20031;-41
2022/03/10 02:43:22;;;;;;;9.93;6.07;;;;;;;-5.02;73.57;93446.94;5090658;28;20024;-41
2022/03/10 02:45:48;;;;;;;24.85;10.75;;;;;;;-4.95;74.22;93443.97;5090403;28;20089;-41
2022/03/10 02:48:14;;;;;;;18.85;9.52;;;;;;;-4.83;74.19;93453.84;5090488;28;20016;-41
2022/03/10 02:50:40;;;;;;;18.73;11.30;;;;;;;-4.72;74.82;93448.75;5090454;28;20020;-41
2022/03/10 02:53:05;;;;;;;16.30;8.40;;;;;;;-4.65;74.59;93454.56;5090672;28;20020;-42
2022/03/10 02:55:31;;;;;;;13.68;7.55;;;;;;;-4.67;75.25;93438.09;5090284;28;20460;-41
2022/03/10 02:57:57;;;;;;;14.82;8.18;;;;;;;-4.51;75.63;93452.44;5090190;28;20041;-41
2022/03/10 03:00:23;;;;;;;13.32;7.95;;;;;;;-4.38;75.29;93453.78;5090180;28;20027;-41
2022/03/10 03:02:48;;;;;;;15.80;7.63;;;;;;;-4.39;75.36;93456.91;5090177;28;20016;-41
2022/03/10 03:05:14;;;;;;;18.33;9.40;;;;;;;-4.42;75.46;93453.19;5090246;28;20032;-41
2022/03/10 03:07:40;;;;;;;19.80;9.43;;;;;;;-4.32;75.49;93453.91;5090196;28;20020;-41
2022/03/10 03:10:07;;;;;;;16.30;8.82;;;;;;;-4.33;75.68;93465.88;5090134;28;20016;-41
2022/03/10 03:12:33;;;;;;;16.63;9.80;;;;;;;-4.23;75.41;93461.97;5090128;28;20018;-41
2022/03/10 03:14:59;;;;;;;15.50;7.85;;;;;;;-4.23;75.62;93459.25;5090450;28;20424;-41
2022/03/10 03:17:24;;;;;;;17.75;8.88;;;;;;;-4.21;75.35;93456.84;5090046;28;20016;-41
2022/03/10 03:19:53;;;;;;;11.43;7.13;;;;;;;-4.21;74.91;93462.25;5090067;28;20027;-41
2022/03/10 03:22:19;;;;;;;;;;;;;;;-4.23;74.44;93459.25;5090825;28;20016;-41
2022/03/10 03:24:45;;;;;;;12.60;6.25;;;;;;;-4.23;73.39;93456.56;5090382;28;19942;-41
2022/03/10 03:27:11;;;;;;;12.95;7.57;;;;;;;-4.41;73.65;93459.31;5090297;28;20024;-42
2022/03/10 03:29:37;;;;;;;7.00;4.63;;;;;;;-4.49;73.30;93458.88;5090061;28;20482;-41
2022/03/10 03:32:03;;;;;;;8.52;4.72;;;;;;;-4.54;72.98;93464.88;5089996;28;20020;-41
2022/03/10 03:34:28;;;;;;;11.20;5.03;;;;;;;-4.57;72.82;93462.34;5093689;28;20016;-41
2022/03/10 03:36:54;;;;;;;12.13;5.20;;;;;;;-4.53;72.39;93468.31;5094016;28;20085;-41
2022/03/10 03:39:19;;;;;;;7.85;5.47;;;;;;;-4.51;71.98;93460.53;5093875;28;20412;-41
2022/03/10 03:41:45;;;;;;;10.98;6.70;;;;;;;-4.55;71.15;93457.25;5093604;28;20020;-41
2022/03/10 03:44:11;;;;;;;7.45;4.57;;;;;;;-4.68;71.46;93454.72;5093967;28;20074;-41
2022/03/10 03:46:37;;;;;;;11.30;4.70;;;;;;;-4.75;71.38;93466.56;5093797;28;20111;-41
2022/03/10 03:49:02;;;;;;;9.57;5.00;;;;;;;-4.89;70.85;93436.78;5075955;28;20024;-41
2022/03/10 03:51:28;;;;;;;8.55;4.57;;;;;;;-4.88;69.98;93436.34;5093682;28;20028;-41
2022/03/10 03:53:53;;;;;;;8.55;4.45;;;;;;;-4.92;69.90;93465.38;5093930;28;20074;-41
2022/03/10 03:56:19;;;;;;;8.93;4.93;;;;;;;-5.00;71.16;93466.84;5093426;28;20048;-42
2022/03/10 03:58:45;;;;;;;9.20;4.45;;;;;;;-5.11;71.39;93474.63;5093828;28;20489;-41
2022/03/10 04:01:10;;;;;;;9.88;5.03;;;;;;;-5.13;70.97;93482.41;5093439;28;20448;-41
2022/03/10 04:03:36;;;;;;;24.65;9.13;;;;;;;-5.31;71.56;93487.03;5079510;28;20021;-41
2022/03/10 04:06:02;;;;;;;35.35;14.23;;;;;;;-5.37;70.86;93473.41;5073063;28;20039;-41
2022/03/10 04:08:27;;;;;;;14.32;7.65;;;;;;;-5.35;71.00;93495.25;5073127;28;20024;-41
2022/03/10 04:10:53;;;;;;;14.90;7.60;;;;;;;-5.35;71.05;93491.81;5072898;28;20025;-41
2022/03/10 04:13:21;;;;;;;19.00;7.57;;;;;;;-5.43;70.59;93496.69;5055501;28;20070;-41
2022/03/10 04:15:51;;;;;;;10.10;6.10;;;;;;;-5.50;70.58;93502.38;5073017;28;20078;-41
2022/03/10 04:18:18;;;;;;;9.45;5.75;;;;;;;-5.37;71.03;93501.06;5073257;28;20039;-41
2022/03/10 04:20:44;;;;;;;7.82;4.90;;;;;;;-5.44;71.41;93505.97;5073225;28;20051;-41
2022/03/10 04:23:11;;;;;;;10.60;6.13;;;;;;;-5.56;72.95;93499.53;5073053;28;20023;-41
2022/03/10 04:25:36;;;;;;;7.85;4.93;;;;;;;-5.46;73.72;93500.31;5073040;28;20035;-41
2022/03/10 04:28:02;;;;;;;16.08;9.07;;;;;;;-5.46;73.79;93500.31;5072812;28;20414;-41
2022/03/10 04:30:27;;;;;;;21.27;10.70;;;;;;;-5.37;73.55;93503.00;5072986;28;20033;-41
2022/03/10 04:32:52;;;;;;;23.10;10.18;;;;;;;-5.48;73.31;93508.78;5072714;28;20549;-41
2022/03/10 04:35:19;;;;;;;18.25;10.85;;;;;;;-5.59;72.84;93495.03;5072557;28;20031;-41
2022/03/10 04:37:48;;;;;;;17.70;8.73;;;;;;;-5.51;71.53;93515.09;5072921;28;20025;-41
2022/03/10 04:40:13;;;;;;;21.27;9.35;;;;;;;-5.50;71.20;93521.94;5076442;28;20055;-41
2022/03/10 04:42:40;;;;;;;18.15;8.90;;;;;;;-5.75;70.87;93529.47;5072742;28;20052;-41
2022/03/10 04:45:09;;;;;;;15.82;8.02;;;;;;;-5.78;71.70;93528.44;5071338;28;20150;-41
2022/03/10 04:47:36;;;;;;;10.73;6.68;;;;;;;-5.78;71.28;93536.50;5072719;28;20016;-41
2022/03/10 04:50:05;;;;;;;14.43;7.30;;;;;;;-6.21;72.37;93540.06;5054485;28;20031;-40
2022/03/10 04:52:30;;;;;;;16.23;7.22;;;;;;;-6.19;71.12;93535.00;5072249;28;20560;-40
2022/03/10 04:54:56;;;;;;;13.05;6.25;;;;;;;-6.19;72.21;93540.38;5072310;28;20063;-41
2022/03/10 04:57:22;;;;;;;16.67;6.90;;;;;;;-6.35;72.44;93510.28;5072144;28;20059;-41
2022/03/10 04:59:47;;;;;;;39.45;19.95;;;;;;;-6.75;72.78;93545.06;5072476;28;20028;-40
2022/03/10 05:02:13;;;;;;;44.90;23.58;;;;;;;-6.49;72.33;93548.38;5074696;28;20397;-41
2022/03/10 05:04:38;;;;;;;23.73;12.90;;;;;;;-6.79;72.19;93549.81;5092678;28;20066;-41
2022/03/10 05:07:07;;;;;;;15.90;8.43;;;;;;;-6.89;72.57;93536.75;5092537;28;20035;-41
2022/03/10 05:09:32;;;;;;;22.80;7.80;;;;;;;-6.71;72.96;93555.69;5092494;28;20020;-41
2022/03/10 05:11:58;;;;;;;18.67;8.27;;;;;;;-6.96;72.67;93562.66;5073445;28;20016;-41
2022/03/10 05:14:24;;;;;;;22.42;12.32;;;;;;;-6.92;73.43;93567.88;5072158;28;20029;-41
2022/03/10 05:16:49;;;;;;;17.67;10.00;;;;;;;-6.86;72.54;93560.78;5071866;28;20048;-41
2022/03/10 05:19:16;;;;;;;17.58;9.32;;;;;;;-6.90;72.98;93568.19;5071804;28;20052;-40
2022/03/10 05:21:41;;;;;;;21.92;9.73;;;;;;;-6.87;73.15;93577.31;5071642;28;20037;-41
2022/03/10 05:24:07;;;;;;;14.52;7.90;;;;;;;-6.72;71.66;93576.41;5071750;28;20040;-41
2022/03/10 05:26:33;;;;;;;16.67;7.72;;;;;;;-6.71;70.15;93585.94;5071943;28;20025;-41
2022/03/10 05:28:58;;;;;;;19.95;8.90;;;;;;;-6.60;69.17;93582.91;5071860;28;20464;-41
2022/03/10 05:31:24;;;;;;;18.15;8.63;;;;;;;-6.93;70.45;93587.88;5071830;28;20025;-40
2022/03/10 05:33:49;;;;;;;17.48;9.38;;;;;;;-7.29;72.18;93590.19;5071864;28;20520;-41
2022/03/10 05:36:14;;;;;;;18.60;8.48;;;;;;;-7.15;71.66;93589.75;5071613;28;20103;-40
2022/03/10 05:38:40;;;;;;;32.92;15.65;;;;;;;-7.18;72.47;93593.28;5089807;28;20577;-40
2022/03/10 05:41:05;;;;;;;24.85;14.25;;;;;;;-7.32;72.75;93599.09;5091615;28;20485;-41
2022/03/10 05:43:32;;;;;;;23.38;13.05;;;;;;;-7.38;73.54;93598.88;5091517;28;20514;-40
2022/03/10 05:45:57;;;;;;;28.00;16.85;;;;;;;-7.12;73.60;93596.91;5091562;28;20548;-41
2022/03/10 05:48:23;;;;;;;20.70;12.25;;;;;;;-6.98;72.51;93593.78;5091374;28;20038;-41
2022/03/10 05:50:48;;;;;;;47.20;26.27;;;;;;;-6.91;73.70;93604.28;5091738;28;20039;-40
2022/03/10 05:53:14;;;;;;;23.90;11.82;;;;;;;-6.69;72.80;93607.00;5091366;28;20446;-41
2022/03/10 05:55:39;;;;;;;24.48;13.52;;;;;;;-6.55;73.37;93609.97;5072775;28;20051;-41
2022/03/10 05:58:04;;;;;;;14.68;8.18;;;;;;;-6.20;72.28;93614.13;5091367;28;20032;-41
2022/03/10 06:00:30;;;;;;;14.57;7.80;;;;;;;-6.09;71.29;93612.97;5091443;28;20054;-41
2022/03/10 06:02:56;;;;;;;15.40;9.13;;;;;;;-5.92;71.33;93619.66;5091117;28;20081;-41
2022/03/10 06:05:21;;;;;;;12.00;7.68;;;;;;;-6.14;70.41;93590.09;5091087;28;20023;-40
2022/03/10 06:07:47;;;;;;;18.25;9.88;;;;;;;-6.08;71.99;93625.22;5091285;28;20027;-41
2022/03/10 06:10:12;;;;;;;26.00;11.80;;;;;;;-6.08;70.80;93631.34;5087241;28;20012;-41
2022/03/10 06:12:38;;;;;;;12.10;6.88;;;;;;;-5.72;70.40;93631.53;5070847;28;20020;-41
2022/03/10 06:15:06;;;;;;;17.58;9.68;;;;;;;-5.59;70.13;93634.16;5070687;28;20028;-41
2022/03/10 06:17:32;;;;;;;17.08;9.30;;;;;;;-5.73;69.93;93643.47;5070648;28;20520;-41
2022/03/10 06:19:58;;;;;;;16.48;8.02;;;;;;;-5.48;70.08;93634.50;5070973;28;20032;-41
2022/03/10 06:22:26;;;;;;;18.42;8.57;;;;;;;-5.28;68.70;93640.25;5070443;28;20137;-41
2022/03/10 06:24:52;;;;;;;16.95;8.70;;;;;;;-5.19;68.24;93623.38;5070502;28;20031;-41
2022/03/10 06:27:22;;;;;;;14.02;8.10;;;;;;;-5.19;67.53;93648.34;5070613;28;20108;-41
2022/03/10 06:29:48;;;;;;;15.82;6.70;;;;;;;-5.08;67.54;93651.38;5070511;28;20024;-41
2022/03/10 06:32:16;;;;;;;10.68;6.65;;;;;;;-4.71;66.22;93652.97;5052475;28;20021;-41
2022/03/10 06:34:41;;;;;;;8.20;5.00;;;;;;;-4.32;64.95;93656.78;5086742;28;20027;-41
2022/03/10 06:37:07;;;;;;;17.98;6.53;;;;;;;-4.26;63.94;93654.97;5090602;28;20509;-41
2022/03/10 06:39:33;;;;;;;8.05;5.13;;;;;;;-3.74;62.80;93659.28;5090810;28;20031;-41
2022/03/10 06:41:59;;;;;;;11.95;5.30;;;;;;;-3.25;62.43;93648.97;5109178;28;20749;-42
2022/03/10 06:44:25;;;;;;;13.63;7.10;;;;;;;-1.71;59.48;93647.28;5111119;28;20027;-41
2022/03/10 06:46:51;;;;;;;8.35;5.13;;;;;;;0.88;51.65;93651.94;5110862;28;20553;-41
2022/03/10 06:49:17;;;;;;;17.58;8.57;;;;;;;3.45;46.78;93648.47;5092947;28;20428;-41
2022/03/10 06:51:42;;;;;;;31.48;14.18;;;;;;;5.37;41.04;93626.19;5111047;28;20019;-41
2022/03/10 06:54:08;;;;;;;111.15;42.90;;;;;;;6.82;36.41;93648.03;5110706;28;20709;-41
2022/03/10 06:56:34;;;;;;;36.63;12.73;;;;;;;7.18;34.50;93656.03;5110660;28;20039;-42
2022/03/10 06:59:00;;;;;;;37.15;15.32;;;;;;;6.92;33.56;93655.91;5110649;28;20023;-42
2022/03/10 07:01:25;;;;;;;57.72;26.88;;;;;;;5.85;34.81;93652.16;5110604;28;20024;-41
2022/03/10 07:03:51;;;;;;;34.85;17.85;;;;;;;4.59;37.53;93667.00;5094610;28;20024;-41
2022/03/10 07:06:17;;;;;;;17.85;10.48;;;;;;;4.10;37.39;93664.47;5090531;28;20039;-41
2022/03/10 07:08:43;;;;;;;20.17;11.98;;;;;;;3.57;38.95;93666.31;5089720;28;20184;-41
2022/03/10 07:11:08;;;;;;;14.43;6.85;;;;;;;2.16;39.73;93669.84;5078395;28;20103;-41
2022/03/10 07:13:35;;;;;;;16.58;9.85;;;;;;;2.09;41.89;93676.50;5069953;28;20066;-41
2022/03/10 07:16:01;;;;;;;9.55;5.43;;;;;;;1.71;43.01;93673.56;5070007;28;20029;-41
2022/03/10 07:18:26;;;;;;;3.97;2.85;;;;;;;1.27;43.50;93685.66;5069898;28;20185;-41
2022/03/10 07:20:52;;;;;;;2.50;2.28;;;;;;;1.44;42.63;93678.34;5069909;28;20036;-41
2022/03/10 07:23:17;;;;;;;3.65;2.45;;;;;;;1.83;42.02;93688.72;5070062;28;20024;-41
2022/03/10 07:25:43;;;;;;;11.27;8.13;;;;;;;2.12;41.12;93691.13;5070130;28;20041;-41
2022/03/10 07:28:09;;;;;;;14.35;8.45;;;;;;;2.68;41.68;93692.81;5070221;28;20028;-41
2022/03/10 07:30:35;;;;;;;17.50;7.78;;;;;;;3.43;40.46;93691.16;5082999;28;20062;-42
2022/03/10 07:33:00;;;;;;;15.80;9.95;;;;;;;3.80;39.19;93686.16;5090280;28;20056;-41
2022/03/10 07:35:27;;;;;;;11.73;7.53;;;;;;;3.85;37.34;93688.13;5090285;28;20035;-42
2022/03/10 07:37:54;;;;;;;18.33;12.13;;;;;;;3.71;38.32;93684.44;5089888;28;20028;-41
2022/03/10 07:40:20;;;;;;;14.27;8.35;;;;;;;3.44;37.95;93685.22;5089883;28;20032;-41
2022/03/10 07:42:46;;;;;;;4.78;3.42;;;;;;;3.16;38.56;93683.72;5089763;28;20035;-41
2022/03/10 07:45:11;;;;;;;6.97;3.05;;;;;;;3.09;39.55;93693.13;5089853;28;20028;-42
2022/03/10 07:47:37;;;;;;;5.80;4.65;;;;;;;2.62;39.01;93689.31;5090139;28;20104;-41
2022/03/10 07:50:04;;;;;;;3.78;2.60;;;;;;;0.93;38.42;93689.31;5089782;28;20028;-40
2022/03/10 07:52:30;;;;;;;4.45;3.13;;;;;;;0.44;40.42;93697.69;5090097;28;20020;-41
2022/03/10 07:54:55;;;;;;;7.65;5.72;;;;;;;0.14;42.99;93697.13;5089740;28;20039;-41
2022/03/10 07:57:21;;;;;;;3.25;2.80;;;;;;;0.41;42.70;93690.53;5089600;28;20052;-41
2022/03/10 07:59:47;;;;;;;12.05;6.10;;;;;;;0.57;43.11;93687.22;5089758;28;20031;-41
2022/03/10 08:02:13;;;;;;;3.80;2.58;;;;;;;0.53;41.77;93686.69;5087376;28;20027;-41
2022/03/10 08:04:39;;;;;;;3.05;2.00;;;;;;;0.40;40.66;93675.44;5069684;28;20505;-41
2022/03/10 08:07:05;;;;;;;9.15;5.38;;;;;;;-0.21;43.52;93683.59;5069754;28;20460;-41
2022/03/10 08:09:31;;;;;;;3.22;2.92;;;;;;;-0.24;42.89;93687.25;5069490;28;20028;-41
2022/03/10 08:11:56;;;;;;;4.32;2.22;;;;;;;0.21;42.63;93674.25;5069437;28;20047;-41
2022/03/10 08:14:21;;;;;;;5.30;3.38;;;;;;;-0.11;43.55;93687.66;5069394;28;20024;-41
2022/03/10 08:16:47;;;;;;;3.20;1.90;;;;;;;0.07;40.96;93673.09;5069375;28;20032;-41
2022/03/10 08:19:12;;;;;;;3.95;2.42;;;;;;;0.29;43.29;93672.59;5070645;28;20024;-41
2022/03/10 08:21:38;;;;;;;9.35;4.65;;;;;;;-0.08;41.15;93675.13;5073199;28;20039;-40
2022/03/10 08:24:04;;;;;;;5.90;4.05;;;;;;;-0.14;41.60;93671.59;5073177;28;20452;-41
2022/03/10 08:26:30;;;;;;;4.45;3.03;;;;;;;0.08;42.00;93684.69;5083422;28;20062;-41
2022/03/10 08:28:56;;;;;;;5.60;3.60;;;;;;;0.26;40.35;93684.44;5093365;28;20047;-41
2022/03/10 08:31:22;;;;;;;5.43;3.00;;;;;;;0.61;41.66;93691.22;5092889;28;20489;-41
2022/03/10 08:33:48;;;;;;;3.47;2.33;;;;;;;0.43;39.98;93679.91;5092941;28;20024;-41
2022/03/10 08:36:13;;;;;;;4.00;2.40;;;;;;;0.98;40.02;93668.81;5093139;28;20023;-41
2022/03/10 08:38:39;;;;;;;6.97;4.80;;;;;;;1.09;39.52;93680.53;5092910;28;20538;-41
2022/03/10 08:41:05;;;;;;;4.40;2.53;;;;;;;1.83;39.91;93669.66;5104307;28;20106;-41
2022/03/10 08:43:32;;;;;;;5.53;3.90;;;;;;;2.54;36.35;93668.47;5113356;28;20027;-42
2022/03/10 08:45:58;;;;;;;3.92;2.33;;;;;;;2.91;35.70;93667.06;5113473;28;20039;-41
2022/03/10 08:48:24;;;;;;;5.22;3.25;;;;;;;4.30;35.37;93664.16;5094815;28;20481;-41
2022/03/10 08:50:49;;;;;;;9.75;5.65;;;;;;;5.82;33.27;93667.63;5113277;28;20038;-41
2022/03/10 08:53:15;;;;;;;5.72;3.58;;;;;;;5.70;28.50;93655.28;5113214;28;20499;-41
2022/03/10 08:55:41;;;;;;;4.28;3.28;;;;;;;5.82;30.46;93673.13;5112969;28;20044;-41
2022/03/10 08:58:06;;;;;;;2.80;2.38;;;;;;;6.87;31.44;93666.44;5112913;28;20084;-42
2022/03/10 09:00:33;;;;;;;2.83;2.58;;;;;;;7.36;27.41;93672.47;5112764;28;20035;-41
2022/03/10 09:02:58;;;;;;;4.53;3.15;;;;;;;7.90;27.76;93674.88;5104158;28;20628;-42
2022/03/10 09:05:24;;;;;;;3.63;2.65;;;;;;;8.10;26.01;93676.28;5092205;28;20035;-41
2022/03/10 09:07:50;;;;;;;4.03;3.10;;;;;;;9.02;27.56;93686.00;5092550;28;20028;-42
2022/03/10 09:10:15;;;;;;;3.42;2.55;;;;;;;9.79;25.24;93688.25;5088095;28;20066;-42
2022/03/10 09:12:41;;;;;;;8.57;4.75;;;;;;;8.30;25.78;93683.91;5072231;28;20482;-43
2022/03/10 09:15:07;;;;;;;4.88;3.78;;;;;;;8.49;25.92;93687.31;5072232;28;20056;-42
2022/03/10 09:17:33;;;;;;;5.35;3.30;;;;;;;8.19;26.83;93681.34;5071815;28;20028;-42
2022/03/10 09:19:59;;;;;;;3.17;2.47;;;;;;;8.71;26.35;93683.38;5072137;28;20025;-42
2022/03/10 09:22:25;;;;;;;3.35;2.90;;;;;;;9.23;27.02;93688.06;5079567;28;20553;-42
2022/03/10 09:24:52;;;;;;;3.25;2.70;;;;;;;8.92;25.15;93693.19;5091926;28;20039;-42
2022/03/10 09:27:18;;;;;;;3.42;3.13;;;;;;;8.43;28.99;93683.94;5091907;28;20062;-42
2022/03/10 09:29:44;;;;;;;2.90;2.60;;;;;;;9.43;27.57;93687.34;5091845;28;20107;-42
2022/03/10 09:32:09;;;;;;;4.53;3.30;;;;;;;8.73;26.69;93683.59;5091360;28;20099;-42
2022/03/10 09:34:35;;;;;;;4.00;3.28;;;;;;;8.47;28.50;93689.13;5091989;28;20039;-42
2022/03/10 09:37:00;;;;;;;4.65;3.75;;;;;;;7.10;28.51;93683.38;5091672;28;20035;-42
2022/03/10 09:39:26;;;;;;;4.95;4.10;;;;;;;8.04;31.07;93683.88;5091941;28;20020;-42
2022/03/10 09:41:53;;;;;;;4.32;3.35;;;;;;;8.16;30.59;93687.91;5091172;28;20481;-43
2022/03/10 09:44:20;;;;;;;6.13;4.72;;;;;;;8.27;31.41;93699.47;5073758;28;20160;-42
2022/03/10 09:46:50;;;;;;;5.10;4.53;;;;;;;8.03;31.67;93693.41;5091860;28;20024;-42
2022/03/10 09:49:16;;;;;;;3.45;3.15;;;;;;;8.37;32.19;93700.56;5091736;28;20020;-42
2022/03/10 09:51:42;;;;;;;6.40;5.20;;;;;;;8.16;32.88;93698.91;5073695;28;20027;-42
2022/03/10 09:54:07;;;;;;;4.80;3.25;;;;;;;8.16;29.38;93702.41;5091648;28;20599;-42
2022/03/10 09:56:36;;;;;;;5.60;3.92;;;;;;;8.94;32.56;93703.72;5091172;28;20521;-42
2022/03/10 09:59:05;;;;;;;4.30;3.42;;;;;;;9.27;27.33;93713.28;5091657;28;20040;-42
2022/03/10 10:01:31;;;;;;;4.22;3.60;;;;;;;8.98;30.82;93696.59;5091643;28;20115;-42
2022/03/10 10:03:56;;;;;;;4.38;3.03;;;;;;;8.57;28.08;93706.69;5074155;28;20549;-42
2022/03/10 10:06:22;;;;;;;33.80;19.95;;;;;;;8.00;27.86;93708.19;5070923;28;20028;-42
2022/03/10 10:08:54;;;;;;;8.10;5.28;;;;;;;7.31;28.95;93708.28;5070877;28;20029;-42
2022/03/10 10:11:32;;;;;;;25.23;15.38;;;;;;;6.58;30.98;93711.19;5071059;28;20028;-42
2022/03/10 10:13:58;;;;;;;6.03;4.68;;;;;;;7.39;29.55;93703.66;5070806;28;20486;-42
2022/03/10 10:16:23;;;;;;;3.72;3.03;;;;;;;7.66;28.89;93710.75;5070660;28;20020;-42
2022/03/10 10:18:54;;;;;;;5.53;3.70;;;;;;;7.57;27.06;93711.13;5079636;28;20107;-42
2022/03/10 10:21:21;;;;;;;4.30;3.60;;;;;;;7.86;27.84;93710.16;5091199;28;20055;-42
2022/03/10 10:23:48;;;;;;;4.35;3.67;;;;;;;8.26;27.61;93711.00;5091097;28;20039;-41
2022/03/10 10:26:13;;;;;;;3.58;2.92;;;;;;;7.95;26.58;93707.00;5090802;28;20040;-42
2022/03/10 10:28:42;;;;;;;5.95;3.83;;;;;;;7.19;31.90;93715.19;5090800;28;20023;-41
2022/03/10 10:31:13;;;;;;;4.53;3.50;;;;;;;6.13;28.62;93710.19;5091009;28;20036;-41
2022/03/10 10:33:41;;;;;;;5.28;3.75;;;;;;;6.10;29.59;93713.97;5091046;28;20020;-42
2022/03/10 10:36:24;;;;;;;4.70;3.75;;;;;;;7.08;32.67;93705.09;5090691;28;20020;-42
2022/03/10 10:38:52;;;;;;;6.30;3.65;;;;;;;5.58;29.27;93722.38;5090999;28;20028;-41
2022/03/10 10:41:24;;;;;;;3.80;3.20;;;;;;;5.09;31.39;93718.00;5090219;28;20501;-41
2022/03/10 10:44:12;;;;;;;5.35;3.20;;;;;;;3.36;35.85;93725.13;5089543;28;20102;-41
2022/03/10 10:46:41;;;;;;;3.47;2.90;;;;;;;3.33;36.02;93725.38;5090589;28;20043;-41
2022/03/10 10:49:09;;;;;;;4.07;2.80;;;;;;;4.08;37.32;93724.34;5090385;28;21063;-41
2022/03/10 10:51:50;;;;;;;8.87;3.70;;;;;;;5.05;35.53;93712.00;5090702;28;20032;-41
2022/03/10 10:54:19;;;;;;;5.25;3.40;;;;;;;6.18;30.63;93717.63;5090341;28;20574;-42
2022/03/10 10:56:49;;;;;;;4.07;3.13;;;;;;;5.55;31.79;93717.91;5090354;28;20060;-42
2022/03/10 10:59:31;;;;;;;4.30;3.63;;;;;;;4.49;33.87;93715.03;5090259;28;20520;-41
2022/03/10 11:02:10;;;;;;;4.40;3.40;;;;;;;5.40;33.40;93712.03;5090336;28;20051;-42
2022/03/10 11:04:37;;;;;;;6.53;4.68;;;;;;;5.31;34.75;93713.09;5070383;28;20024;-41
2022/03/10 11:07:03;;;;;;;4.10;3.22;;;;;;;5.07;33.57;93715.00;5070313;28;20017;-41
2022/03/10 11:09:31;;;;;;;4.25;3.85;;;;;;;4.65;36.40;93716.22;5070060;28;20063;-41
2022/03/10 11:11:57;;;;;;;3.95;2.90;;;;;;;5.01;34.06;93709.56;5070340;28;20047;-41
2022/03/10 11:14:23;;;;;;;4.45;3.85;;;;;;;5.15;33.33;93708.50;5073142;28;20051;-41
2022/03/10 11:16:49;;;;;;;3.95;3.42;;;;;;;4.65;35.96;93708.00;5090444;28;20028;-41
2022/03/10 11:19:17;;;;;;;4.20;3.30;;;;;;;5.15;32.84;93700.28;5090338;28;20028;-42
2022/03/10 11:22:10;;;;;;;4.88;3.53;;;;;;;4.48;33.28;93708.06;5090332;28;20031;-42
2022/03/10 11:24:48;;;;;;;4.22;3.35;;;;;;;5.20;32.98;93698.72;5072340;28;20386;-42
2022/03/10 11:27:17;;;;;;;4.75;3.53;;;;;;;5.65;30.81;93694.41;5090415;28;20028;-42
2022/03/10 11:29:46;;;;;;;4.88;3.05;;;;;;;5.72;30.08;93707.56;5090069;28;20024;-41
2022/03/10 11:32:11;;;;;;;4.32;3.67;;;;;;;5.47;30.74;93702.53;5072317;28;20012;-41
2022/03/10 11:35:03;;;;;;;3.70;3.30;;;;;;;5.61;35.60;93693.22;5072337;28;20532;-42